Flight Track Log - Related Links

Times and Time Zones

All times are in EDT time to prevent confusion due to time zone crossing. See the EGF3350 flight status page for this flight to view local times or setup timezone preferences in your user account.


Time Position Orientation Groundspeed Altitude Reporting Facility
EDT Latitude Longitude Course Direction KTS MPH feet Rate Location/Type
Tue 01:05:32 PM 30.7002 -88.3018 13° North  Level FlightAware Approximate
Tue 01:06:16 PM 30.7406 -88.2911 280° West 196 226 2,000  Level Houston Center
Tue 01:10:16 PM 30.7853 -88.5964 279° West 262 302 10,200 1,900 Climbing Houston Center
Tue 01:11:16 PM 30.7981 -88.6953 279° West 292 336 11,500 1,250 Climbing Houston Center
Tue 01:12:16 PM 30.8128 -88.8011 279° West 316 364 12,700 1,150 Climbing Houston Center
Tue 01:13:16 PM 30.8275 -88.9119 280° West 339 390 13,800 1,100 Climbing Houston Center
Tue 01:14:16 PM 30.8444 -89.0250 280° West 353 406 14,900 1,150 Climbing Houston Center
Tue 01:15:16 PM 30.8614 -89.1383 279° West 353 406 16,100 1,150 Climbing Houston Center
Tue 01:16:16 PM 30.8758 -89.2444 277° West 364 419 17,200 1,100 Climbing Houston Center
Tue 01:17:16 PM 30.8881 -89.3603 280° West 370 426 18,300 1,100 Climbing Houston Center
Tue 01:18:16 PM 30.9047 -89.4761 278° West 365 420 19,400 1,150 Climbing Houston Center
Tue 01:19:16 PM 30.9192 -89.5919 278° West 365 420 20,600 1,150 Climbing Houston Center
Tue 01:20:16 PM 30.9333 -89.7125 279° West 370 426 21,700 1,160 Climbing Houston Center
Tue 01:21:15 PM 30.9497 -89.8308 278° West 370 426 22,900 1,150 Climbing Houston Center
Tue 01:22:16 PM 30.9636 -89.9517 278° West 370 426 24,000 1,140 Climbing Houston Center
Tue 01:23:16 PM 30.9778 -90.0725 279° West 370 426 25,200 1,200 Climbing Houston Center
Tue 01:24:16 PM 30.9936 -90.1908 279° West 376 433 26,400 1,150 Climbing Houston Center
Tue 01:25:16 PM 31.0094 -90.3117 276° West 376 433 27,500 800 Climbing Houston Center
Tue 01:26:16 PM 31.0211 -90.4328 277° West 376 433 28,000 250 Climbing Houston Center
Tue 01:27:16 PM 31.0347 -90.5586 279° West 382 440 28,000  Level Houston Center
Tue 01:28:16 PM 31.0525 -90.6869 278° West 395 455 28,000  Level Houston Center
Tue 01:29:16 PM 31.0681 -90.8225 279° West 415 478 28,000  Level Houston Center
Tue 01:30:16 PM 31.0853 -90.9531 277° West 415 478 28,000  Level Houston Center
Tue 01:31:16 PM 31.0986 -91.0839 279° West 420 483 28,000  Level Houston Center
Tue 01:32:16 PM 31.1158 -91.2150 277° West 415 478 28,000  Level Houston Center
Tue 01:33:16 PM 31.1286 -91.3458 279° West 409 471 28,000  Level Houston Center
Tue 01:34:16 PM 31.1456 -91.4742 278° West 409 471 28,000  Level Houston Center
Tue 01:35:16 PM 31.1603 -91.6053 276° West 409 471 28,000  Level Houston Center
Tue 01:36:16 PM 31.1728 -91.7411 278° West 414 476 28,000  Level Houston Center
Tue 01:37:16 PM 31.1894 -91.8747 276° West 414 476 28,000  Level Houston Center
Tue 01:38:16 PM 31.2017 -92.0058 279° West 414 476 28,000  Level Houston Center
Tue 01:39:16 PM 31.2200 -92.1442 277° West 425 489 28,000  Level Houston Center
Tue 01:40:16 PM 31.2339 -92.2728 276° West 425 489 28,000  Level Houston Center
Tue 01:41:16 PM 31.2458 -92.4064 283° West 425 489 28,000  Level Houston Center
Tue 01:42:15 PM 31.2722 -92.5378 294° West 419 482 28,000  Level Houston Center
Tue 01:44:28 PM 31.3781 -92.8197 293° West 411 473 28,000  Level Fort Worth Center
Tue 01:45:28 PM 31.4244 -92.9489 294° West 418 481 28,000  Level Fort Worth Center
Tue 01:46:28 PM 31.4706 -93.0708 294° West 424 488 28,000  Level Fort Worth Center
Tue 01:47:27 PM 31.5167 -93.1953 294° West 424 488 28,000  Level Fort Worth Center
Tue 01:48:28 PM 31.5644 -93.3222 294° West 424 488 28,000  Level Fort Worth Center
Tue 01:49:28 PM 31.6103 -93.4447 288° West 424 488 28,000  Level Fort Worth Center
Tue 01:50:27 PM 31.6456 -93.5750 284° West 424 488 28,000  Level Fort Worth Center
Tue 01:51:28 PM 31.6725 -93.7056 284° West 419 482 28,000  Level Fort Worth Center
Tue 01:52:28 PM 31.7014 -93.8386 286° West 419 482 28,000  Level Fort Worth Center
Tue 01:53:28 PM 31.7322 -93.9694 283° West 419 482 28,000  Level Fort Worth Center
Tue 01:54:28 PM 31.7586 -94.1003 284° West 419 482 28,000  Level Fort Worth Center
Tue 01:55:28 PM 31.7869 -94.2314 283° West 414 476 28,000  Level Fort Worth Center
Tue 01:56:28 PM 31.8131 -94.3600 284° West 414 476 28,000  Level Fort Worth Center
Tue 01:57:28 PM 31.8414 -94.4958 284° West 414 476 28,000  Level Fort Worth Center
Tue 01:58:28 PM 31.8694 -94.6297 284° West 419 482 28,000  Level Fort Worth Center
Tue 01:59:28 PM 31.8975 -94.7633 284° West 419 482 28,000  Level Fort Worth Center
Tue 02:00:28 PM 31.9253 -94.8994 283° West 425 489 28,000  Level Fort Worth Center
Tue 02:01:28 PM 31.9508 -95.0336 284° West 430 495 28,000  Level Fort Worth Center
Tue 02:02:28 PM 31.9806 -95.1722 283° West 430 495 28,000  Level Fort Worth Center
Tue 02:03:28 PM 32.0081 -95.3089 283° West 430 495 28,000  Level Fort Worth Center
Tue 02:04:28 PM 32.0353 -95.4456 282° West 430 495 28,000 -600 Level Fort Worth Center
Tue 02:05:28 PM 32.0603 -95.5822 284° West 430 495 26,800 -1,800 Descending Fort Worth Center
Tue 02:06:28 PM 32.0869 -95.7092 284° West 430 495 24,400 -2,600 Descending Fort Worth Center
Tue 02:07:28 PM 32.1139 -95.8411 283° West 430 495 21,600 -2,200 Descending Fort Worth Center
Tue 02:08:28 PM 32.1383 -95.9708 282° West 425 489 20,000 -1,350 Descending Fort Worth Center
Tue 02:09:28 PM 32.1628 -96.1028 290° West 419 482 18,900 -2,224 Descending Fort Worth Center
Tue 02:10:24 PM 32.1975 -96.2133 311° West 392 451 15,700 -3,221 Descending FAA TRACON SMA TRACON (SMA)
Tue 02:11:03 PM 32.2403 -96.2706 319° Northwest 376 433 13,800 -2,962 Descending FAA TRACON SMA TRACON (SMA)
Tue 02:11:43 PM 32.2936 -96.3264 312° West 370 426 11,800 -2,100 Descending FAA TRACON SMA TRACON (SMA)
Tue 02:12:23 PM 32.3378 -96.3842 312° West 335 386 11,000 -600 Descending FAA TRACON SMA TRACON (SMA)
Tue 02:13:03 PM 32.3719 -96.4297 316° Northwest 299 344 11,000 -75 Level FAA TRACON SMA TRACON (SMA)
Tue 02:13:43 PM 32.4122 -96.4764 319° Northwest 293 337 10,900 -900 Descending FAA TRACON SMA TRACON (SMA)
Tue 02:14:43 PM 32.4739 -96.5389 319° Northwest 289 333 9,500 -1,440 Descending FAA TRACON SMA TRACON (SMA)
Tue 02:15:23 PM 32.5142 -96.5811 319° Northwest 279 321 8,500 -1,200 Descending FAA TRACON SMA TRACON (SMA)
Tue 02:16:03 PM 32.5497 -96.6172 321° Northwest 273 314 7,900 -1,200 Descending FAA TRACON SMA TRACON (SMA)
Tue 02:16:43 PM 32.5900 -96.6553 317° Northwest 267 307 6,900 -1,481 Descending FAA TRACON SMA TRACON (SMA)
Tue 02:17:24 PM 32.6267 -96.6956 318° Northwest 263 303 5,900 -1,350 Descending FAA TRACON SMA TRACON (SMA)
Tue 02:18:03 PM 32.6594 -96.7311 321° Northwest 262 302 5,100 -987 Descending FAA TRACON SMA TRACON (SMA)
Tue 02:18:43 PM 32.6972 -96.7675 318° Northwest 258 297 4,600 -825 Descending FAA TRACON SMA TRACON (SMA)
Tue 02:19:23 PM 32.7344 -96.8072 314° West 264 304 4,000 -900 Descending FAA TRACON SMA TRACON (SMA)
Tue 02:20:03 PM 32.7644 -96.8444 314° West 257 296 3,400 -900 Descending FAA TRACON SMA TRACON (SMA)

Login

Don't have an account? Register now (free) for customized features, flight alerts, and more!